Terminal Aerodrome Forecast
Issued by NWS Binghamton, NY

Home | Current Version | Previous Version | Text Only | Print | Product List | Glossary On
Versions: 1 2 3 4 5 6 7 8 9 10 11 12 13 14 15 16 17 18 19 20 21 22 23
000
FTUS41 KBGM 191138
TAFBGM
TAF
KBGM 191138Z 1912/2012 17010G17KT P6SM BKN150
      TEMPO 1917/1919 -SHRA OVC025
     FM191900 18013G19KT 5SM -RA OVC018
     FM192200 19011KT 3SM -RA OVC008 WS020/22045KT
     FM200200 19010KT 3SM BR OVC012 WS020/24045KT
     FM200600 19009KT P6SM OVC015 WS020/24045KT=

USA.gov is the U.S. government's official web portal to all federal, state and local government web resources and services.